createdAt,value
2017-08-17T00:01:33.973Z,10.53
2017-08-17T00:04:02.237Z,9.70
2017-08-17T00:06:30.473Z,10.63
2017-08-17T00:08:58.805Z,9.57
2017-08-17T00:11:27.059Z,11.00
2017-08-17T00:13:55.534Z,10.03
2017-08-17T00:16:23.804Z,11.70
2017-08-17T00:18:52.054Z,10.37
2017-08-17T00:21:20.431Z,10.40
2017-08-17T00:23:49.437Z,9.70
2017-08-17T00:26:17.686Z,10.03
2017-08-17T00:28:46.751Z,10.63
2017-08-17T00:31:15.098Z,10.90
2017-08-17T00:33:43.500Z,10.67
2017-08-17T00:36:11.866Z,9.80
2017-08-17T00:38:40.144Z,9.67
2017-08-17T00:41:08.392Z,11.53
2017-08-17T00:43:36.663Z,19.10
2017-08-17T00:46:04.902Z,9.60
2017-08-17T00:48:33.412Z,14.20
2017-08-17T00:51:02.408Z,11.07
2017-08-17T00:53:30.660Z,9.50
2017-08-17T00:55:59.672Z,10.37
2017-08-17T00:58:27.944Z,10.57
2017-08-17T01:00:56.942Z,12.83
2017-08-17T01:03:25.232Z,10.57
2017-08-17T01:05:54.225Z,10.27
2017-08-17T01:08:22.527Z,11.60
2017-08-17T01:10:50.782Z,13.03
2017-08-17T01:13:19.043Z,15.73
2017-08-17T01:15:47.350Z,15.33
2017-08-17T01:18:15.634Z,10.80
2017-08-17T01:20:43.864Z,9.63
2017-08-17T01:23:12.201Z,11.20
2017-08-17T01:25:40.447Z,10.60
2017-08-17T01:28:08.723Z,11.90
2017-08-17T01:30:36.994Z,10.20
2017-08-17T01:33:05.457Z,9.93
2017-08-17T01:35:33.722Z,12.43
2017-08-17T01:38:01.995Z,10.33
2017-08-17T01:40:30.255Z,10.83
2017-08-17T01:42:59.261Z,11.83
2017-08-17T01:45:27.661Z,9.63
2017-08-17T01:47:55.889Z,10.37
2017-08-17T01:50:25.081Z,13.97
2017-08-17T01:52:53.294Z,9.57
2017-08-17T01:55:22.117Z,8.60
2017-08-17T01:57:50.435Z,7.83
2017-08-17T02:00:18.674Z,10.53
2017-08-17T02:02:46.955Z,7.83
2017-08-17T02:05:15.347Z,10.50
2017-08-17T02:07:43.596Z,9.30
2017-08-17T02:10:11.885Z,15.63
2017-08-17T02:12:40.217Z,8.83
2017-08-17T02:15:08.476Z,9.87
2017-08-17T02:17:37.477Z,7.90
2017-08-17T02:20:05.921Z,9.07
2017-08-17T02:22:34.134Z,8.47
2017-08-17T02:25:02.398Z,8.17
2017-08-17T02:27:30.658Z,8.93
2017-08-17T02:29:59.704Z,9.20
2017-08-17T02:32:27.976Z,7.87
2017-08-17T02:34:56.221Z,7.80
2017-08-17T02:37:24.495Z,8.90
2017-08-17T02:39:53.514Z,9.03
2017-08-17T02:42:21.789Z,10.97
2017-08-17T02:44:50.025Z,9.20
2017-08-17T02:47:19.077Z,10.20
2017-08-17T02:49:47.317Z,9.53
2017-08-17T02:52:15.581Z,13.73
2017-08-17T02:54:44.745Z,9.20
2017-08-17T02:57:12.979Z,9.13
2017-08-17T02:59:41.366Z,9.60
2017-08-17T03:02:10.460Z,8.30
2017-08-17T03:04:38.882Z,9.00
2017-08-17T03:07:07.170Z,9.37
2017-08-17T03:09:35.382Z,9.00
2017-08-17T03:12:03.651Z,10.00
2017-08-17T03:14:32.053Z,8.80
2017-08-17T03:17:00.346Z,8.73
2017-08-17T03:19:28.583Z,9.73
2017-08-17T03:21:56.843Z,10.30
2017-08-17T03:24:25.132Z,9.53
2017-08-17T03:26:53.377Z,9.20
2017-08-17T03:29:21.634Z,8.73
2017-08-17T03:31:50.670Z,10.50
2017-08-17T03:34:18.945Z,9.40
2017-08-17T03:36:47.194Z,9.47
2017-08-17T03:39:16.320Z,9.60
2017-08-17T03:41:44.625Z,10.97
2017-08-17T03:44:12.888Z,8.80
2017-08-17T03:46:41.113Z,8.53
2017-08-17T03:49:10.117Z,8.63
2017-08-17T03:51:38.510Z,8.50
2017-08-17T03:54:06.772Z,8.73
2017-08-17T03:56:35.010Z,9.37
2017-08-17T03:59:04.029Z,8.70
2017-08-17T04:01:33.055Z,8.67
2017-08-17T04:04:01.375Z,9.30
2017-08-17T04:06:29.633Z,9.07
2017-08-17T04:08:57.904Z,13.90
2017-08-17T04:11:26.145Z,10.00
2017-08-17T04:13:54.390Z,8.90
2017-08-17T04:16:23.405Z,10.57
2017-08-17T04:18:51.651Z,11.83
2017-08-17T04:21:20.670Z,10.37
2017-08-17T04:23:49.018Z,9.43
2017-08-17T04:26:17.607Z,11.20
2017-08-17T04:28:46.752Z,9.00
2017-08-17T04:31:14.995Z,11.37
2017-08-17T04:33:43.352Z,9.73
2017-08-17T04:36:11.568Z,8.27
2017-08-17T04:38:39.860Z,8.97
2017-08-17T04:41:08.146Z,8.67
2017-08-17T04:43:36.434Z,8.90
2017-08-17T04:46:05.912Z,8.57
2017-08-17T04:48:35.189Z,9.97
2017-08-17T04:51:04.363Z,9.53
2017-08-17T04:53:33.589Z,8.90
2017-08-17T04:56:45.650Z,12.80
2017-08-17T04:59:22.427Z,8.57
2017-08-17T05:01:52.173Z,11.80
2017-08-17T05:04:21.126Z,12.00
2017-08-17T05:06:49.615Z,11.27
2017-08-17T05:09:18.645Z,9.93
2017-08-17T05:11:47.132Z,9.50
2017-08-17T05:14:15.416Z,10.73
2017-08-17T05:16:43.668Z,9.90
2017-08-17T05:19:11.902Z,9.70
2017-08-17T05:21:40.550Z,9.93
2017-08-17T05:24:09.259Z,10.53
2017-08-17T05:26:37.668Z,10.67
2017-08-17T05:29:05.944Z,10.07
2017-08-17T05:31:36.051Z,9.53
2017-08-17T05:34:05.111Z,11.57
2017-08-17T05:36:34.076Z,10.97
2017-08-17T05:39:04.361Z,9.57
2017-08-17T05:41:34.017Z,10.10
2017-08-17T05:44:02.761Z,9.97
2017-08-17T05:46:33.041Z,15.93
2017-08-17T05:49:01.765Z,10.90
2017-08-17T05:51:31.491Z,10.40
2017-08-17T05:54:00.093Z,10.13
2017-08-17T05:56:29.080Z,11.40
2017-08-17T05:58:57.446Z,11.83
2017-08-17T06:01:26.632Z,10.90
2017-08-17T06:03:54.906Z,11.40
2017-08-17T06:06:23.170Z,11.87
2017-08-17T06:08:51.428Z,10.43
2017-08-17T06:11:20.892Z,11.97
2017-08-17T06:13:50.501Z,13.13
2017-08-17T06:16:19.502Z,12.10
2017-08-17T06:18:48.573Z,13.37
2017-08-17T06:21:18.835Z,14.07
2017-08-17T06:23:47.941Z,14.03
2017-08-17T06:26:17.327Z,14.47
2017-08-17T06:28:46.468Z,14.27
2017-08-17T06:31:16.817Z,14.63
2017-08-17T06:33:46.490Z,13.57
2017-08-17T06:36:17.085Z,13.77
2017-08-17T06:38:45.667Z,12.70
2017-08-17T06:41:14.089Z,19.63
2017-08-17T06:43:42.326Z,13.50
2017-08-17T06:46:12.348Z,15.40
2017-08-17T06:48:40.623Z,13.70
2017-08-17T06:51:08.944Z,13.30
2017-08-17T06:53:37.230Z,15.50
2017-08-17T06:56:05.476Z,19.73
2017-08-17T06:58:33.779Z,16.17
2017-08-17T07:01:02.045Z,14.40
2017-08-17T07:03:30.340Z,16.90
2017-08-17T07:05:58.598Z,14.33
2017-08-17T07:08:27.772Z,14.50
2017-08-17T07:10:56.024Z,13.27
2017-08-17T07:13:24.477Z,13.53
2017-08-17T07:15:52.742Z,14.27
2017-08-17T07:18:21.748Z,15.93
2017-08-17T07:20:50.108Z,14.90
2017-08-17T07:23:18.568Z,14.93
2017-08-17T07:25:46.785Z,15.80
2017-08-17T07:28:15.187Z,15.80
2017-08-17T07:30:43.457Z,13.93
2017-08-17T07:33:11.943Z,13.43
2017-08-17T07:35:40.189Z,14.90
2017-08-17T07:38:08.444Z,16.37
2017-08-17T07:40:37.477Z,14.37
2017-08-17T07:43:05.761Z,15.30
2017-08-17T07:45:34.009Z,14.47
2017-08-17T07:48:02.284Z,16.43
2017-08-17T07:50:30.524Z,19.33
2017-08-17T07:52:58.769Z,15.63
2017-08-17T07:55:27.033Z,18.70
2017-08-17T07:57:55.414Z,14.97
2017-08-17T08:00:23.666Z,14.50
2017-08-17T08:02:51.919Z,15.20
2017-08-17T08:05:21.151Z,17.03
2017-08-17T08:07:49.406Z,14.57
2017-08-17T08:10:17.672Z,14.70
2017-08-17T08:12:45.976Z,20.97
2017-08-17T08:15:14.210Z,14.17
2017-08-17T08:17:43.224Z,14.53
2017-08-17T08:20:11.489Z,13.10
2017-08-17T08:22:40.529Z,13.67
2017-08-17T08:25:08.853Z,14.90
2017-08-17T08:27:37.092Z,14.93
2017-08-17T08:30:05.345Z,15.90
2017-08-17T08:32:33.585Z,16.87
2017-08-17T08:35:01.910Z,16.23
2017-08-17T08:37:31.125Z,15.67
2017-08-17T08:39:59.577Z,15.07
2017-08-17T08:42:27.831Z,20.50
2017-08-17T08:44:56.241Z,18.97
2017-08-17T08:47:24.470Z,15.33
2017-08-17T08:49:52.756Z,13.17
2017-08-17T08:52:21.633Z,16.40
2017-08-17T08:54:49.901Z,16.30
2017-08-17T08:57:18.974Z,19.67
2017-08-17T08:59:47.244Z,16.67
2017-08-17T09:02:15.529Z,18.40
2017-08-17T09:04:43.874Z,16.27
2017-08-17T09:07:12.129Z,16.57
2017-08-17T09:09:40.433Z,16.73
2017-08-17T09:12:08.716Z,20.27
2017-08-17T09:14:36.963Z,17.10
2017-08-17T09:17:05.218Z,19.07
2017-08-17T09:19:33.602Z,18.30
2017-08-17T09:22:01.869Z,15.00
2017-08-17T09:24:30.964Z,14.63
2017-08-17T09:26:59.257Z,15.40
2017-08-17T09:29:27.579Z,16.27
2017-08-17T09:31:55.833Z,22.30
2017-08-17T09:34:24.071Z,16.50
2017-08-17T09:36:52.351Z,14.77
2017-08-17T09:39:20.697Z,14.50
2017-08-17T09:41:48.998Z,15.20
2017-08-17T09:44:17.995Z,13.10
2017-08-17T09:46:46.873Z,15.03
2017-08-17T09:49:15.950Z,13.00
2017-08-17T09:51:44.968Z,12.30
2017-08-17T09:54:13.223Z,13.00
2017-08-17T09:56:42.269Z,12.83
2017-08-17T09:59:10.605Z,15.90
2017-08-17T10:01:38.985Z,17.47
2017-08-17T10:04:07.367Z,15.20
2017-08-17T10:06:35.813Z,16.87
2017-08-17T10:09:04.108Z,11.83
2017-08-17T10:11:32.374Z,13.93
2017-08-17T10:14:01.422Z,11.73
2017-08-17T10:16:29.659Z,13.43
2017-08-17T10:18:57.926Z,13.87
2017-08-17T10:21:26.936Z,13.47
2017-08-17T10:23:55.227Z,14.07
2017-08-17T10:26:23.497Z,12.90
2017-08-17T10:28:51.808Z,12.03
2017-08-17T10:31:22.459Z,17.50
2017-08-17T10:33:50.707Z,11.40
2017-08-17T10:36:19.268Z,13.10
2017-08-17T10:38:47.580Z,12.33
2017-08-17T10:41:15.967Z,11.87
2017-08-17T10:43:44.224Z,11.80
2017-08-17T10:46:13.514Z,13.80
2017-08-17T10:48:42.802Z,13.37
2017-08-17T10:51:11.225Z,11.67
2017-08-17T10:53:39.457Z,12.80
2017-08-17T10:56:07.733Z,13.73
2017-08-17T10:58:35.986Z,11.80
2017-08-17T11:01:04.241Z,12.93
2017-08-17T11:03:32.704Z,12.07
2017-08-17T11:06:01.193Z,11.50
2017-08-17T11:08:29.713Z,13.87
2017-08-17T11:10:57.954Z,12.40
2017-08-17T11:13:27.017Z,45.00
2017-08-17T11:15:55.266Z,13.10
2017-08-17T11:18:23.540Z,23.20
2017-08-17T11:20:51.794Z,22.37
2017-08-17T11:23:20.054Z,12.60
2017-08-17T11:25:49.096Z,11.67
2017-08-17T11:28:17.355Z,12.80
2017-08-17T11:30:45.622Z,12.00
2017-08-17T11:33:13.893Z,9.67
2017-08-17T11:35:42.335Z,8.90
2017-08-17T11:38:10.600Z,11.30
2017-08-17T11:40:38.868Z,10.63
2017-08-17T11:43:07.193Z,10.20
2017-08-17T11:45:35.460Z,10.67
2017-08-17T11:48:04.465Z,10.60
2017-08-17T11:50:32.742Z,9.57
2017-08-17T11:53:01.191Z,10.30
2017-08-17T11:55:29.458Z,10.03
2017-08-17T11:57:59.628Z,10.20
2017-08-17T12:00:29.869Z,9.20
2017-08-17T12:02:58.181Z,8.43
2017-08-17T12:05:27.300Z,8.20
2017-08-17T12:07:56.419Z,7.97
2017-08-17T12:10:24.911Z,8.03
2017-08-17T12:12:53.169Z,8.27
2017-08-17T12:15:21.431Z,9.47
2017-08-17T12:17:49.716Z,9.90
2017-08-17T12:20:17.971Z,8.80
2017-08-17T12:22:46.426Z,9.03
2017-08-17T12:25:14.816Z,10.50
2017-08-17T12:27:43.930Z,13.13
2017-08-17T12:30:12.959Z,8.43
2017-08-17T12:32:41.437Z,7.40
2017-08-17T12:35:09.816Z,7.20
2017-08-17T12:37:38.049Z,6.40
2017-08-17T12:40:06.370Z,6.20
2017-08-17T12:42:34.648Z,9.17
2017-08-17T12:45:03.646Z,5.50
2017-08-17T12:47:32.053Z,4.93
2017-08-17T12:50:00.308Z,5.30
2017-08-17T12:52:28.638Z,5.27
2017-08-17T12:54:57.873Z,5.50
2017-08-17T12:57:26.277Z,5.80
2017-08-17T12:59:54.563Z,9.13
2017-08-17T13:02:22.885Z,10.53
2017-08-17T13:04:51.210Z,5.27
2017-08-17T13:07:19.437Z,5.37
2017-08-17T13:09:47.738Z,5.57
2017-08-17T13:12:16.089Z,4.67
2017-08-17T13:14:44.339Z,5.13
2017-08-17T13:17:13.134Z,5.53
2017-08-17T13:19:41.533Z,6.40
2017-08-17T13:22:09.762Z,4.50
2017-08-17T13:24:38.772Z,5.57
2017-08-17T13:27:07.021Z,4.83
2017-08-17T13:29:36.028Z,5.30
2017-08-17T13:32:05.074Z,6.50
2017-08-17T13:34:33.516Z,5.53
2017-08-17T13:37:03.532Z,5.50
2017-08-17T13:39:31.869Z,5.00
2017-08-17T13:42:00.114Z,4.80
2017-08-17T13:44:28.400Z,4.90
2017-08-17T13:46:56.642Z,6.33
2017-08-17T13:49:24.900Z,5.00
2017-08-17T13:51:53.901Z,5.23
2017-08-17T13:54:22.130Z,5.87
2017-08-17T13:56:50.419Z,5.00
2017-08-17T13:59:18.761Z,5.80
2017-08-17T14:01:47.010Z,5.80
2017-08-17T14:04:15.273Z,5.33
2017-08-17T14:06:43.620Z,5.67
2017-08-17T14:09:11.915Z,9.97
2017-08-17T14:11:40.128Z,6.03
2017-08-17T14:14:08.378Z,4.70
2017-08-17T14:16:36.749Z,4.67
2017-08-17T14:19:05.032Z,4.80
2017-08-17T14:21:33.375Z,4.50
2017-08-17T14:24:02.412Z,6.17
2017-08-17T14:26:30.724Z,4.37
2017-08-17T14:28:58.995Z,6.57
2017-08-17T14:31:27.375Z,28.50
2017-08-17T14:33:55.656Z,4.80
2017-08-17T14:36:23.985Z,4.23
2017-08-17T14:38:53.009Z,4.33
2017-08-17T14:41:21.352Z,5.00
2017-08-17T14:43:49.634Z,3.90
2017-08-17T14:46:17.924Z,10.43
2017-08-17T14:48:46.189Z,4.10
2017-08-17T14:51:14.455Z,7.17
2017-08-17T14:53:42.713Z,4.73
2017-08-17T14:56:11.715Z,5.53
2017-08-17T14:58:40.701Z,4.40
2017-08-17T15:01:09.162Z,3.30
2017-08-17T15:03:37.412Z,3.83
2017-08-17T15:06:05.649Z,3.73
2017-08-17T15:08:33.901Z,4.30
2017-08-17T15:11:03.019Z,2.77
2017-08-17T15:13:31.363Z,3.10
2017-08-17T15:15:59.599Z,2.90
2017-08-17T15:18:27.871Z,4.50
2017-08-17T15:20:56.272Z,3.00
2017-08-17T15:23:24.888Z,4.10
2017-08-17T15:25:53.356Z,2.97
2017-08-17T15:28:23.370Z,2.37
2017-08-17T15:30:52.708Z,2.80
2017-08-17T15:33:22.273Z,4.63
2017-08-17T15:35:51.620Z,4.23
2017-08-17T15:38:20.259Z,4.53
2017-08-17T15:40:48.851Z,3.47
2017-08-17T15:43:17.231Z,3.20
2017-08-17T15:45:46.271Z,3.93
2017-08-17T15:48:14.583Z,4.43
2017-08-17T15:50:43.964Z,4.93
2017-08-17T15:53:12.213Z,4.13
2017-08-17T15:55:40.648Z,4.63
2017-08-17T15:58:08.898Z,5.23
2017-08-17T16:00:37.295Z,5.30
2017-08-17T16:03:05.516Z,3.23
2017-08-17T16:05:33.866Z,4.10
2017-08-17T16:08:02.943Z,8.30
2017-08-17T16:10:31.200Z,2.67
2017-08-17T16:12:59.468Z,2.83
2017-08-17T16:15:27.737Z,4.10
2017-08-17T16:17:55.992Z,3.40
2017-08-17T16:20:24.375Z,4.07
2017-08-17T16:22:52.648Z,3.70
2017-08-17T16:25:21.212Z,4.83
2017-08-17T16:27:50.292Z,3.50
2017-08-17T16:30:19.062Z,2.87
2017-08-17T16:32:48.441Z,3.50
2017-08-17T16:35:17.125Z,2.50
2017-08-17T16:37:45.464Z,2.50
2017-08-17T16:40:13.686Z,2.60
2017-08-17T16:42:41.954Z,2.37
2017-08-17T16:45:10.177Z,4.10
2017-08-17T16:47:38.467Z,2.90
2017-08-17T16:50:07.571Z,4.03
2017-08-17T16:52:35.844Z,3.87
2017-08-17T16:55:04.115Z,2.87
2017-08-17T16:57:32.397Z,6.30
2017-08-17T17:00:01.001Z,3.70
2017-08-17T17:02:29.364Z,3.00
2017-08-17T17:04:57.882Z,2.60
2017-08-17T17:07:26.334Z,4.20
2017-08-17T17:09:54.651Z,3.57
2017-08-17T17:12:22.902Z,2.07
2017-08-17T17:14:51.161Z,3.20
2017-08-17T17:17:19.439Z,2.77
2017-08-17T17:19:47.669Z,2.90
2017-08-17T17:22:16.109Z,3.70
2017-08-17T17:24:44.408Z,3.73
2017-08-17T17:27:12.658Z,4.63
2017-08-17T17:29:40.912Z,2.07
2017-08-17T17:32:09.330Z,2.20
2017-08-17T17:34:37.606Z,2.73
2017-08-17T17:37:05.864Z,8.80
2017-08-17T17:39:34.133Z,2.20
2017-08-17T17:42:02.610Z,2.33
2017-08-17T17:44:31.126Z,3.77
2017-08-17T17:46:59.386Z,5.90
2017-08-17T17:49:28.457Z,4.73
2017-08-17T17:51:56.775Z,4.90
2017-08-17T17:54:25.064Z,6.33
2017-08-17T17:56:54.090Z,3.60
2017-08-17T17:59:22.328Z,2.90
2017-08-17T18:01:50.613Z,2.43
2017-08-17T18:04:18.900Z,4.97
2017-08-17T18:06:47.180Z,3.53
2017-08-17T18:09:15.562Z,2.70
2017-08-17T18:11:43.868Z,3.90
2017-08-17T18:14:12.130Z,3.97
2017-08-17T18:16:40.400Z,2.37
2017-08-17T18:19:08.789Z,2.80
2017-08-17T18:21:37.113Z,2.93
2017-08-17T18:24:05.388Z,2.20
2017-08-17T18:26:34.433Z,5.37
2017-08-17T18:29:02.680Z,2.60
2017-08-17T18:31:31.071Z,2.93
2017-08-17T18:33:59.599Z,2.60
2017-08-17T18:36:27.865Z,2.83
2017-08-17T18:38:56.106Z,1.73
2017-08-17T18:41:24.460Z,3.57
2017-08-17T18:43:52.857Z,2.37
2017-08-17T18:46:21.277Z,2.10
2017-08-17T18:48:50.391Z,2.27
2017-08-17T18:51:18.673Z,6.93
2017-08-17T18:53:47.798Z,4.37
2017-08-17T18:56:16.093Z,3.03
2017-08-17T18:58:44.422Z,4.23
2017-08-17T19:01:12.777Z,2.63
2017-08-17T19:03:41.092Z,5.80
2017-08-17T19:06:10.250Z,6.23
2017-08-17T19:08:38.453Z,3.63
2017-08-17T19:11:06.736Z,5.13
2017-08-17T19:13:36.020Z,2.90
2017-08-17T19:16:04.530Z,5.30
2017-08-17T19:18:32.785Z,2.60
2017-08-17T19:21:01.861Z,3.93
2017-08-17T19:23:30.869Z,5.33
2017-08-17T19:25:59.123Z,1.93
2017-08-17T19:28:28.178Z,1.93
2017-08-17T19:30:56.459Z,1.70
2017-08-17T19:33:24.716Z,2.10
2017-08-17T19:35:52.981Z,3.93
2017-08-17T19:38:21.335Z,3.07
2017-08-17T19:40:50.506Z,1.83
2017-08-17T19:43:18.953Z,2.87
2017-08-17T19:45:47.268Z,1.77
2017-08-17T19:48:15.549Z,1.80
2017-08-17T19:50:44.574Z,8.37
2017-08-17T19:53:12.820Z,6.83
2017-08-17T19:55:42.457Z,5.00
2017-08-17T19:58:10.840Z,2.80
2017-08-17T20:00:39.137Z,3.90
2017-08-17T20:03:07.404Z,3.40
2017-08-17T20:05:35.714Z,6.00
2017-08-17T20:08:04.049Z,3.97
2017-08-17T20:10:32.321Z,2.77
2017-08-17T20:13:00.605Z,6.43
2017-08-17T20:15:28.849Z,6.73
2017-08-17T20:17:57.128Z,5.73
2017-08-17T20:20:26.638Z,6.37
2017-08-17T20:22:54.909Z,4.07
2017-08-17T20:25:23.279Z,1.77
2017-08-17T20:27:52.306Z,1.63
2017-08-17T20:30:20.552Z,2.00
2017-08-17T20:32:48.906Z,2.37
2017-08-17T20:35:17.185Z,2.00
2017-08-17T20:37:45.660Z,2.60
2017-08-17T20:40:15.965Z,1.90
2017-08-17T20:42:44.233Z,1.60
2017-08-17T20:45:12.877Z,2.27
2017-08-17T20:47:41.170Z,2.20
2017-08-17T20:50:10.181Z,1.90
2017-08-17T20:52:38.456Z,1.90
2017-08-17T20:55:06.717Z,2.93
2017-08-17T20:57:34.991Z,2.60
2017-08-17T21:00:03.268Z,6.70
2017-08-17T21:02:31.519Z,3.33
2017-08-17T21:04:59.767Z,3.87
2017-08-17T21:07:28.014Z,5.60
2017-08-17T21:09:56.313Z,4.10
2017-08-17T21:12:24.670Z,3.83
2017-08-17T21:14:52.894Z,2.70
2017-08-17T21:17:21.308Z,7.80
2017-08-17T21:19:49.578Z,5.60
2017-08-17T21:22:17.817Z,5.40
2017-08-17T21:24:46.090Z,2.70
2017-08-17T21:27:16.338Z,1.97
2017-08-17T21:29:44.781Z,2.20
2017-08-17T21:32:13.021Z,2.60
2017-08-17T21:34:41.428Z,1.83
2017-08-17T21:37:09.753Z,2.77
2017-08-17T21:39:38.077Z,2.50
2017-08-17T21:42:06.358Z,2.03
2017-08-17T21:44:34.604Z,3.20
2017-08-17T21:47:04.863Z,1.87
2017-08-17T21:49:33.158Z,2.47
2017-08-17T21:52:02.322Z,2.07
2017-08-17T21:54:30.548Z,3.67
2017-08-17T21:56:59.341Z,3.13
2017-08-17T21:59:27.686Z,2.33
2017-08-17T22:01:56.684Z,3.83
2017-08-17T22:04:25.088Z,4.50
2017-08-17T22:06:53.566Z,2.40
2017-08-17T22:09:22.251Z,2.50
2017-08-17T22:11:50.470Z,3.00
2017-08-17T22:14:18.743Z,2.60
2017-08-17T22:16:47.020Z,6.00
2017-08-17T22:19:17.936Z,8.00
2017-08-17T22:21:46.485Z,5.07
2017-08-17T22:24:14.742Z,2.90
2017-08-17T22:26:43.153Z,2.37
2017-08-17T22:29:11.410Z,2.43
2017-08-17T22:31:39.657Z,2.30
2017-08-17T22:34:09.033Z,2.80
2017-08-17T22:36:38.552Z,2.47
2017-08-17T22:39:06.782Z,3.80
2017-08-17T22:41:35.063Z,4.83
2017-08-17T22:44:03.972Z,2.33
2017-08-17T22:46:32.366Z,4.73
2017-08-17T22:49:01.933Z,2.10
2017-08-17T22:51:30.225Z,4.47
2017-08-17T22:53:58.468Z,2.50
2017-08-17T22:56:26.822Z,2.67
2017-08-17T22:58:55.856Z,4.33
2017-08-17T23:01:24.276Z,1.67
2017-08-17T23:03:53.164Z,3.60
2017-08-17T23:06:22.629Z,2.33
2017-08-17T23:08:50.960Z,3.87
2017-08-17T23:11:20.443Z,2.93
2017-08-17T23:13:48.842Z,3.07
2017-08-17T23:16:17.148Z,2.53
2017-08-17T23:18:45.416Z,2.43
2017-08-17T23:21:14.446Z,2.67
2017-08-17T23:23:42.864Z,2.03
2017-08-17T23:26:11.953Z,2.30
2017-08-17T23:28:41.486Z,2.40
2017-08-17T23:31:10.485Z,2.53
2017-08-17T23:33:39.669Z,2.90
2017-08-17T23:36:07.916Z,2.33
2017-08-17T23:38:36.153Z,2.10
2017-08-17T23:41:05.709Z,2.80
2017-08-17T23:43:35.021Z,6.30
2017-08-17T23:46:03.545Z,3.00
2017-08-17T23:48:31.805Z,2.60
2017-08-17T23:51:02.828Z,3.10
2017-08-17T23:53:33.948Z,3.03
2017-08-17T23:56:02.211Z,3.90
2017-08-17T23:58:30.527Z,5.53
